Погода Венадо-Туертона 2 недели

Санта-Фе, Аргентина

03 - 15 марта
  • 03марта
    Сегодня
    +11°
    +26°
    Ясно и безоблачно
    ВремяПогодаТемператураВлажностьДавлениеВетер, м/сВероятность осадков
    00:00Ясно и безоблачно+20°C52 %751 мм4.7 м/с5 %
    03:00Ясно и безоблачно+17°C59 %752 мм5.4 м/с5 %
    06:00Ясно и безоблачно+14°C70 %753 мм5.7 м/с5 %
    09:00Ясно и безоблачно+16°C61 %754 мм4.8 м/с5 %
    12:00Ясно и безоблачно+22°C52 %755 мм4.3 м/с5 %
    15:00Ясно и безоблачно+25°C43 %754 мм3.7 м/с5 %
    18:00Практически безоблачно+25°C43 %753 мм3.5 м/с5 %
    21:00Практически безоблачно+18°C62 %753 мм2.1 м/с6 %
  • 04марта
    Понедельник
    +12°
    +27°
    Ясно и безоблачно
    ВремяПогодаТемператураВлажностьДавлениеВетер, м/сВероятность осадков
    00:00Практически безоблачно+16°C66 %754 мм2.8 м/с5 %
    03:00Практически безоблачно+14°C69 %754 мм2.0 м/с5 %
    06:00Ясно и безоблачно+12°C78 %754 мм2.2 м/с5 %
    09:00Облачно с прояснениями+17°C71 %755 мм2.4 м/с5 %
    12:00Ясно и безоблачно+24°C41 %755 мм2.9 м/с5 %
    15:00Ясно и безоблачно+26°C40 %754 мм3.6 м/с5 %
    18:00Ясно и безоблачно+26°C45 %754 мм3.7 м/с5 %
    21:00Ясно и безоблачно+19°C69 %754 мм2.5 м/с5 %
  • 05марта
    Вторник
    +14°
    +28°
    Небольшая облачность
    ВремяПогодаТемператураВлажностьДавлениеВетер, м/сВероятность осадков
    00:00Ясно и безоблачно+18°C69 %755 мм1.7 м/с5 %
    03:00Ясно и безоблачно+15°C84 %755 мм1.2 м/с5 %
    06:00Ясно и безоблачно+12°C93 %755 мм1.7 м/с5 %
    09:00Ясно и безоблачно+17°C81 %756 мм1.9 м/с5 %
    12:00Ясно и безоблачно+24°C54 %755 мм0.7 м/с5 %
    15:00Небольшая облачность+27°C46 %754 мм0.8 м/с5 %
    18:00Небольшая облачность+28°C43 %752 мм0.7 м/с5 %
    21:00Ясно и безоблачно+20°C69 %752 мм1.9 м/с5 %
  • 06марта
    Среда
    +16°
    +30°
    Ясно и безоблачно
    ВремяПогодаТемператураВлажностьДавлениеВетер, м/сВероятность осадков
    00:00Ясно и безоблачно+19°C71 %753 мм3.4 м/с5 %
    03:00Ясно и безоблачно+16°C80 %752 мм2.8 м/с5 %
    06:00Ясно и безоблачно+14°C86 %751 мм3.1 м/с5 %
    09:00Ясно и безоблачно+20°C75 %752 мм3.6 м/с5 %
    12:00Ясно и безоблачно+26°C55 %752 мм5.6 м/с5 %
    15:00Ясно и безоблачно+29°C48 %750 мм6.2 м/с5 %
    18:00Ясно и безоблачно+28°C50 %749 мм6.2 м/с5 %
    21:00Ясно и безоблачно+22°C64 %750 мм4.7 м/с5 %
Мы используем cookies
Соглашаюсь